Terminal Aerodrome Forecast
Issued by NWS Quad Cities IA IL

Home | Current Version | Previous Version | Text Only | Print | Product List | Glossary On
Versions: 1 2 3 4 5 6 7 8 9 10 11 12 13 14 15 16 17 18 19 20 21 22 23 24 25 26 27 28
718
FTUS43 KDVN 080042 AAA
TAFMLI
TAF AMD
KMLI 080042Z 0801/0824 28013G22KT P6SM BKN035
     FM081200 29015G24KT P6SM -SN BKN025=

USA.gov is the U.S. government's official web portal to all federal, state and local government web resources and services.